Time;durP1;ratioP1;P1;durP2;ratioP2;P2;SDS_P1;SDS_P2;PMS_P1;PMS_P2;Temp;Humidity;BMP_temperature;BMP_pressure;BME280_temperature;BME280_humidity;BME280_pressure;Samples;Min_cycle;Max_cycle;Signal;HPM_P1;HPM_P2
2023/07/18 00:00:14;;;;;;;10.88;4.80;;;;;;;12.02;91.41;102056.84;6191311;23;20087;-68
2023/07/18 00:02:44;;;;;;;11.35;4.28;;;;;;;11.97;91.97;102056.00;6214982;23;20083;-68
2023/07/18 00:05:12;;;;;;;7.80;3.80;;;;;;;11.93;91.79;102059.44;6191080;23;20283;-68
2023/07/18 00:07:39;;;;;;;10.90;4.10;;;;;;;11.88;92.28;102058.56;6141612;23;1167554;-68
2023/07/18 00:10:05;;;;;;;10.75;5.03;;;;;;;11.98;92.96;102065.59;6191116;23;20342;-68
2023/07/18 00:12:30;;;;;;;7.60;5.00;;;;;;;11.97;92.75;102063.88;6191159;23;20004;-68
2023/07/18 00:14:56;;;;;;;12.45;5.05;;;;;;;11.97;92.17;102058.63;6216810;23;20008;-68
2023/07/18 00:17:21;;;;;;;6.35;4.00;;;;;;;12.00;91.16;102061.25;6192094;23;20023;-68
2023/07/18 00:19:46;;;;;;;8.65;4.85;;;;;;;11.91;92.07;102058.56;6191892;23;20422;-68
2023/07/18 00:22:12;;;;;;;7.30;5.15;;;;;;;11.96;93.10;102062.13;6191382;23;20162;-68
2023/07/18 00:24:38;;;;;;;9.30;4.85;;;;;;;11.91;93.15;102061.19;6216553;23;20004;-68
2023/07/18 00:27:04;;;;;;;8.60;5.18;;;;;;;11.89;94.14;102065.56;6217140;23;20019;-68
2023/07/18 00:29:29;;;;;;;7.65;5.10;;;;;;;11.91;95.46;102058.56;6215803;23;20087;-68
2023/07/18 00:31:56;;;;;;;8.98;4.90;;;;;;;11.95;95.44;102068.22;6217212;23;20442;-68
2023/07/18 00:34:22;;;;;;;9.20;5.80;;;;;;;11.89;95.59;102055.06;6191463;23;20012;-68
2023/07/18 00:36:47;;;;;;;11.70;5.40;;;;;;;11.86;95.52;102066.44;6192137;23;20444;-68
2023/07/18 00:39:13;;;;;;;10.48;6.50;;;;;;;11.85;97.15;102058.56;6190777;23;20008;-68
2023/07/18 00:41:39;;;;;;;8.02;6.15;;;;;;;11.79;97.20;102057.69;6192565;23;20008;-68
2023/07/18 00:44:04;;;;;;;10.77;6.70;;;;;;;11.82;97.86;102063.81;6190920;22;20446;-68
2023/07/18 00:46:31;;;;;;;10.82;5.57;;;;;;;11.68;96.47;102071.63;6192008;23;20091;-68
2023/07/18 00:48:57;;;;;;;7.80;5.18;;;;;;;11.74;95.36;102067.28;6216365;23;20157;-68
2023/07/18 00:51:24;;;;;;;12.73;5.95;;;;;;;11.70;95.49;102064.66;6192321;23;20034;-68
2023/07/18 00:53:52;;;;;;;11.93;5.00;;;;;;;11.73;93.41;102065.50;6190548;23;20008;-68
2023/07/18 00:56:17;;;;;;;7.00;4.82;;;;;;;11.61;94.39;102065.50;6192258;23;20012;-68
2023/07/18 00:58:44;;;;;;;8.88;4.80;;;;;;;11.27;94.46;102062.72;6191484;23;20342;-68
2023/07/18 01:01:10;;;;;;;7.63;5.15;;;;;;;11.39;95.55;102052.28;6192626;23;20036;-68
2023/07/18 01:03:38;;;;;;;7.35;4.95;;;;;;;11.29;95.36;102053.09;6166397;23;20015;-68
2023/07/18 01:06:05;;;;;;;8.70;4.35;;;;;;;11.23;96.17;102050.44;6217191;23;20099;-68
2023/07/18 01:08:31;;;;;;;8.45;4.68;;;;;;;11.21;96.36;102045.19;6191709;23;20039;-68
2023/07/18 01:10:56;;;;;;;10.15;5.60;;;;;;;11.31;97.96;102054.00;6191474;23;20431;-68
2023/07/18 01:13:22;;;;;;;7.88;5.18;;;;;;;11.23;97.27;102047.81;6191639;23;20027;-68
2023/07/18 01:15:47;;;;;;;7.50;4.70;;;;;;;11.27;95.39;102054.84;6191449;23;20019;-68
2023/07/18 01:18:13;;;;;;;6.57;4.63;;;;;;;11.27;94.50;102044.34;6215725;23;20004;-68
2023/07/18 01:20:40;;;;;;;8.15;4.53;;;;;;;11.31;92.78;102055.75;6216781;23;20433;-68
2023/07/18 01:23:06;;;;;;;6.18;3.83;;;;;;;11.13;92.54;102053.91;6191388;23;20437;-68
2023/07/18 01:25:34;;;;;;;9.27;4.00;;;;;;;11.12;92.74;102062.63;6191978;23;20011;-68
2023/07/18 01:28:00;;;;;;;10.93;5.10;;;;;;;11.03;94.33;102053.88;6193166;23;20743;-68
2023/07/18 01:30:27;;;;;;;6.57;4.28;;;;;;;11.08;93.42;102053.88;6193047;23;20389;-68
2023/07/18 01:32:53;;;;;;;9.48;5.13;;;;;;;10.93;94.81;102041.53;6218489;23;20015;-68
2023/07/18 01:35:23;;;;;;;7.07;3.95;;;;;;;10.87;93.76;102038.88;6193063;23;20012;-68
2023/07/18 01:37:49;;;;;;;5.90;4.05;;;;;;;10.85;94.48;102045.88;6193441;23;20012;-68
2023/07/18 01:40:19;;;;;;;9.98;5.20;;;;;;;10.89;96.20;102043.28;6192521;23;20026;-68
2023/07/18 01:42:46;;;;;;;10.60;7.68;;;;;;;10.97;98.71;102037.19;6218006;23;20011;-68
2023/07/18 01:45:12;;;;;;;13.35;8.15;;;;;;;11.08;100.00;102033.75;6193646;23;20095;-68
2023/07/18 01:47:39;;;;;;;9.52;7.07;;;;;;;10.97;100.00;102032.81;6218420;23;20398;-68
2023/07/18 01:50:06;;;;;;;8.77;6.32;;;;;;;10.93;100.00;102028.41;6218260;23;20087;-68
2023/07/18 01:52:32;;;;;;;9.20;6.38;;;;;;;10.96;99.77;102030.19;6192559;23;20194;-68
2023/07/18 01:54:59;;;;;;;10.93;6.75;;;;;;;11.00;100.00;102034.59;6216873;23;20000;-68
2023/07/18 01:57:51;;;;;;;12.48;7.45;;;;;;;11.11;100.00;102019.78;6218585;23;20121;-68
2023/07/18 02:00:21;;;;;;;12.18;7.20;;;;;;;11.07;100.00;102025.88;6185231;23;20016;-68
2023/07/18 02:02:49;;;;;;;10.77;7.85;;;;;;;11.13;100.00;102019.78;6193370;23;20008;-68
2023/07/18 02:05:22;;;;;;;10.82;7.80;;;;;;;11.15;100.00;102016.31;6193962;23;20457;-68
2023/07/18 02:07:49;;;;;;;11.05;7.85;;;;;;;11.16;100.00;102014.56;6219005;23;20039;-68
2023/07/18 02:10:16;;;;;;;10.23;6.55;;;;;;;10.94;100.00;102017.06;6167181;23;20011;-68
2023/07/18 02:12:42;;;;;;;10.40;8.05;;;;;;;11.07;100.00;102005.75;6218828;23;20315;-68
2023/07/18 02:15:08;;;;;;;11.43;8.50;;;;;;;11.07;100.00;102013.63;6192117;23;20008;-68
2023/07/18 02:17:34;;;;;;;8.88;6.55;;;;;;;10.94;100.00;102006.59;6193153;23;20012;-68
2023/07/18 02:20:00;;;;;;;8.57;6.30;;;;;;;10.95;100.00;102003.09;6193287;23;20376;-68
2023/07/18 02:22:26;;;;;;;9.65;7.13;;;;;;;11.02;100.00;102007.50;6193171;23;20011;-68
2023/07/18 02:24:51;;;;;;;10.13;7.28;;;;;;;11.06;100.00;101997.88;6191659;23;20149;-68
2023/07/18 02:27:19;;;;;;;8.40;6.15;;;;;;;11.01;100.00;102003.13;6193521;23;20008;-68
2023/07/18 02:29:46;;;;;;;9.88;6.43;;;;;;;11.01;100.00;101999.63;6193412;23;20354;-68
2023/07/18 02:32:12;;;;;;;12.45;7.50;;;;;;;11.09;100.00;102003.16;6192783;23;20011;-68
2023/07/18 02:34:38;;;;;;;10.50;6.07;;;;;;;11.06;100.00;101997.88;6193002;23;20142;-68
2023/07/18 02:37:03;;;;;;;6.07;4.72;;;;;;;10.91;97.63;102001.31;6192373;23;20007;-68
2023/07/18 02:39:32;;;;;;;7.05;4.72;;;;;;;10.78;96.76;102010.00;6191906;23;20012;-68
2023/07/18 02:41:58;;;;;;;6.97;5.38;;;;;;;10.96;97.37;102010.09;6194249;23;20004;-68
2023/07/18 02:44:23;;;;;;;6.30;4.82;;;;;;;10.99;97.42;102007.50;6168336;23;20059;-68
2023/07/18 02:46:49;;;;;;;7.68;4.40;;;;;;;10.84;94.99;102007.41;6193056;23;20016;-68
2023/07/18 02:49:14;;;;;;;8.27;5.35;;;;;;;10.77;96.77;102000.38;6192749;23;20012;-68
2023/07/18 02:51:40;;;;;;;6.97;5.47;;;;;;;10.71;96.38;102004.69;6192593;23;20449;-68
2023/07/18 02:54:05;;;;;;;7.65;5.95;;;;;;;10.87;97.59;102010.03;6191508;22;20008;-68
2023/07/18 02:56:32;;;;;;;7.28;5.82;;;;;;;10.74;98.36;102009.94;6193605;23;20019;-68
2023/07/18 02:58:57;;;;;;;9.32;6.18;;;;;;;10.82;99.29;102007.41;6193252;23;20091;-68
2023/07/18 03:01:23;;;;;;;8.35;5.18;;;;;;;10.74;97.60;102006.47;6192238;23;20082;-68
2023/07/18 03:03:48;;;;;;;7.90;5.30;;;;;;;10.75;96.67;102003.84;6192128;23;20090;-68
2023/07/18 03:06:15;;;;;;;6.20;4.60;;;;;;;10.64;96.35;101999.41;6193012;23;20078;-68
2023/07/18 03:08:41;;;;;;;5.50;4.32;;;;;;;10.59;94.55;102002.00;6192569;23;20417;-68
2023/07/18 03:11:07;;;;;;;4.75;3.90;;;;;;;10.51;94.19;102008.94;6217540;23;20027;-68
2023/07/18 03:13:32;;;;;;;6.88;3.83;;;;;;;10.51;94.10;101998.44;6217545;23;20342;-68
2023/07/18 03:15:58;;;;;;;7.60;5.28;;;;;;;10.65;94.20;101996.81;6192607;23;20505;-68
2023/07/18 03:18:23;;;;;;;9.30;5.22;;;;;;;10.52;94.16;101998.47;6191969;23;20009;-68
2023/07/18 03:20:49;;;;;;;6.30;5.22;;;;;;;10.54;94.96;102003.72;6192478;23;20011;-68
2023/07/18 03:23:15;;;;;;;4.30;3.70;;;;;;;10.53;93.05;102008.09;6217566;23;20004;-68
2023/07/18 03:25:40;;;;;;;5.47;4.50;;;;;;;10.44;92.20;102008.00;6216744;23;20043;-68
2023/07/18 03:28:09;;;;;;;4.78;4.00;;;;;;;10.40;92.32;102003.59;6192872;23;20008;-68
2023/07/18 03:30:34;;;;;;;6.35;4.45;;;;;;;10.36;92.66;102007.09;6217122;23;20375;-68
2023/07/18 03:33:00;;;;;;;5.32;3.97;;;;;;;10.30;92.00;102005.25;6190787;23;20008;-68
2023/07/18 03:35:25;;;;;;;7.22;4.82;;;;;;;10.27;92.30;102002.63;6192156;23;20403;-68
2023/07/18 03:37:51;;;;;;;8.45;4.40;;;;;;;10.23;93.32;101999.09;6191969;23;20012;-68
2023/07/18 03:40:17;;;;;;;7.55;4.47;;;;;;;10.25;95.66;101998.22;6191278;23;20008;-68
2023/07/18 03:42:44;;;;;;;5.35;4.57;;;;;;;10.27;94.05;101994.75;6190636;23;20018;-68
2023/07/18 03:45:12;;;;;;;8.80;3.90;;;;;;;10.23;93.10;102008.69;6167748;23;20007;-68
2023/07/18 03:47:39;;;;;;;5.35;4.35;;;;;;;10.13;94.01;102006.84;6167557;23;20060;-68
2023/07/18 03:50:05;;;;;;;5.25;4.05;;;;;;;10.17;92.62;102012.16;6192174;23;20043;-68
2023/07/18 03:52:30;;;;;;;5.82;4.43;;;;;;;10.10;92.45;102007.72;6217361;23;20004;-68
2023/07/18 03:54:56;;;;;;;5.70;4.22;;;;;;;10.11;93.58;102005.97;6191222;23;20497;-68
2023/07/18 03:57:22;;;;;;;4.88;3.97;;;;;;;10.07;93.90;102010.31;6193012;23;20146;-68
2023/07/18 03:59:48;;;;;;;5.97;4.22;;;;;;;10.15;93.28;102000.75;6192515;23;20004;-68
2023/07/18 04:02:14;;;;;;;8.77;5.40;;;;;;;10.15;95.92;101995.53;6190743;23;20146;-68
2023/07/18 04:04:41;;;;;;;6.38;4.80;;;;;;;10.24;95.51;101989.47;6216933;23;20004;-68
2023/07/18 04:07:07;;;;;;;7.75;5.50;;;;;;;10.23;96.01;101992.97;6192256;23;20354;-68
2023/07/18 04:09:32;;;;;;;9.60;5.93;;;;;;;10.34;97.07;101996.59;6190982;23;20103;-68
2023/07/18 04:11:58;;;;;;;7.88;6.30;;;;;;;10.45;97.71;101991.41;6192636;23;20047;-68
2023/07/18 04:14:23;;;;;;;8.57;5.70;;;;;;;10.47;97.83;101988.81;6191432;23;20008;-68
2023/07/18 04:16:49;;;;;;;7.07;5.80;;;;;;;10.46;98.36;101984.44;6192801;23;20012;-68
2023/07/18 04:19:14;;;;;;;8.35;6.07;;;;;;;10.50;98.41;101983.59;6191789;23;20012;-68
2023/07/18 04:21:39;;;;;;;9.52;6.15;;;;;;;10.54;98.24;101982.75;6192474;23;20018;-68
2023/07/18 04:24:08;;;;;;;9.30;6.28;;;;;;;10.65;98.46;101981.06;6191101;22;20410;-68
2023/07/18 04:26:33;;;;;;;9.18;6.05;;;;;;;11.02;97.65;101973.41;6193359;23;20012;-68
2023/07/18 04:28:59;;;;;;;6.85;5.32;;;;;;;11.32;96.42;101969.16;6216852;23;20073;-68
2023/07/18 04:31:25;;;;;;;6.45;5.32;;;;;;;11.63;94.34;101973.59;6192291;23;20008;-68
2023/07/18 04:33:50;;;;;;;7.50;4.88;;;;;;;11.98;92.04;101962.28;6191180;23;20019;-68
2023/07/18 04:36:16;;;;;;;6.35;5.03;;;;;;;12.65;89.75;101966.59;6216704;23;20041;-68
2023/07/18 04:38:41;;;;;;;7.32;4.45;;;;;;;12.70;86.57;101966.59;6191092;23;20015;-68
2023/07/18 04:41:07;;;;;;;5.82;4.20;;;;;;;13.26;85.30;101962.00;6192062;23;20039;-68
2023/07/18 04:43:32;;;;;;;6.45;4.63;;;;;;;14.02;81.90;101975.56;6191790;23;20277;-68
2023/07/18 04:45:58;;;;;;;7.38;4.82;;;;;;;14.59;79.22;101977.69;6192215;23;20016;-68
2023/07/18 04:48:24;;;;;;;7.10;4.55;;;;;;;15.27;76.76;101968.16;6191078;23;20108;-68
2023/07/18 04:50:57;;;;;;;7.30;4.90;;;;;;;15.80;76.10;101979.72;6191433;23;20062;-68
2023/07/18 04:53:22;;;;;;;10.68;4.07;;;;;;;16.36;73.24;101968.25;6215841;23;20004;-68
2023/07/18 04:55:51;;;;;;;6.55;4.25;;;;;;;16.92;71.55;101971.63;6191271;23;20020;-68
2023/07/18 04:58:17;;;;;;;7.15;4.40;;;;;;;17.83;68.88;101977.56;6217405;23;20005;-68
2023/07/18 05:00:42;;;;;;;8.30;4.05;;;;;;;18.10;66.61;101977.84;6218438;23;20044;-68
2023/07/18 05:03:08;;;;;;;5.93;3.85;;;;;;;18.74;64.89;101982.34;6218135;23;20016;-68
2023/07/18 05:05:33;;;;;;;4.93;3.15;;;;;;;19.36;63.22;101972.59;6219078;23;20016;-69
2023/07/18 05:07:59;;;;;;;5.40;3.22;;;;;;;19.41;61.90;101976.00;6194330;23;20023;-68
2023/07/18 05:10:25;;;;;;;5.90;3.13;;;;;;;19.81;61.48;101979.19;6193068;23;20012;-68
2023/07/18 05:12:52;;;;;;;5.45;3.40;;;;;;;19.84;60.54;101976.44;6193915;23;20014;-68
2023/07/18 05:15:19;;;;;;;6.10;3.38;;;;;;;21.02;59.39;101974.13;6193162;23;20012;-68
2023/07/18 05:17:45;;;;;;;5.03;2.90;;;;;;;21.16;57.68;101975.38;6218247;23;20091;-68
2023/07/18 05:20:11;;;;;;;3.97;2.38;;;;;;;21.44;55.19;101977.84;6219075;23;20039;-68
2023/07/18 05:22:41;;;;;;;6.20;2.97;;;;;;;22.34;53.57;101983.13;6219433;23;20054;-68
2023/07/18 05:25:08;;;;;;;6.75;2.88;;;;;;;23.01;51.69;101979.25;6217732;23;20016;-68
2023/07/18 05:27:33;;;;;;;5.28;2.72;;;;;;;22.60;50.78;101979.31;6243625;23;20310;-68
2023/07/18 05:29:59;;;;;;;4.57;2.33;;;;;;;23.02;50.35;101980.09;6194030;23;20004;-68
2023/07/18 05:32:24;;;;;;;4.03;1.98;;;;;;;23.51;48.96;101983.13;6218898;23;20018;-68
2023/07/18 05:34:50;;;;;;;4.53;2.28;;;;;;;23.98;46.81;101981.78;6193166;23;20038;-68
2023/07/18 05:37:16;;;;;;;6.35;2.30;;;;;;;24.24;47.96;101989.41;6168455;23;20008;-68
2023/07/18 05:39:41;;;;;;;5.85;2.60;;;;;;;24.72;46.91;101983.34;6193149;23;20077;-69
2023/07/18 05:42:07;;;;;;;4.55;2.30;;;;;;;25.24;44.89;101979.63;6193991;23;20012;-68
2023/07/18 05:44:33;;;;;;;4.05;2.25;;;;;;;25.54;44.74;101981.56;6218712;23;20003;-68
2023/07/18 05:46:59;;;;;;;5.25;2.10;;;;;;;25.55;43.24;101977.91;6193561;23;20022;-68
2023/07/18 05:49:26;;;;;;;4.30;2.42;;;;;;;25.75;42.31;101971.41;6193621;23;20012;-68
2023/07/18 05:51:52;;;;;;;6.28;2.80;;;;;;;26.05;41.86;101977.78;6192776;23;20011;-68
2023/07/18 05:54:17;;;;;;;6.03;2.75;;;;;;;26.07;41.57;101979.41;6192389;22;20019;-68
2023/07/18 05:56:42;;;;;;;4.18;1.98;;;;;;;26.49;41.18;101981.41;6193484;23;20012;-68
2023/07/18 05:59:08;;;;;;;5.07;2.25;;;;;;;26.91;39.36;101980.63;6218501;23;20319;-68
2023/07/18 06:01:34;;;;;;;6.00;2.53;;;;;;;27.00;39.75;101989.06;6192963;23;20015;-68
2023/07/18 06:03:59;;;;;;;6.72;2.42;;;;;;;27.26;39.05;101982.88;6192256;22;20437;-68
2023/07/18 06:06:25;;;;;;;4.97;2.38;;;;;;;27.49;39.34;101986.78;6218281;23;20012;-68
2023/07/18 06:08:51;;;;;;;5.72;2.28;;;;;;;28.03;37.97;101984.19;6192028;23;20445;-68
2023/07/18 06:11:18;;;;;;;4.75;2.30;;;;;;;28.28;38.40;101978.84;6192946;23;20007;-69
2023/07/18 06:13:44;;;;;;;6.75;2.50;;;;;;;29.11;38.02;101984.78;6193060;23;20493;-69
2023/07/18 06:16:10;;;;;;;4.57;2.25;;;;;;;29.19;36.72;101979.66;6192588;23;20022;-69
2023/07/18 06:18:35;;;;;;;6.60;2.65;;;;;;;29.82;36.16;101988.50;6190694;23;20090;-69
2023/07/18 06:21:02;;;;;;;4.20;2.00;;;;;;;29.58;35.23;101991.22;6218469;23;20004;-69
2023/07/18 06:23:29;;;;;;;4.32;2.00;;;;;;;30.05;34.48;101989.50;6192558;23;20095;-69
2023/07/18 06:25:55;;;;;;;3.90;1.80;;;;;;;31.22;34.03;101989.41;6217193;23;20011;-69
2023/07/18 06:28:20;;;;;;;4.97;1.95;;;;;;;31.90;33.62;101986.53;6217264;23;20004;-69
2023/07/18 06:30:48;;;;;;;3.70;1.70;;;;;;;31.56;32.86;101989.31;6218535;23;20111;-69
2023/07/18 06:33:13;;;;;;;4.53;1.52;;;;;;;31.74;30.22;101987.81;6168670;23;20008;-69
2023/07/18 06:35:39;;;;;;;5.57;1.77;;;;;;;31.21;32.29;101993.97;6193007;23;20023;-69
2023/07/18 06:38:04;;;;;;;5.50;1.70;;;;;;;30.87;32.23;101991.25;6217729;23;20458;-69
2023/07/18 06:40:30;;;;;;;4.55;1.73;;;;;;;30.01;32.49;101981.75;6190818;23;20521;-69
2023/07/18 06:42:55;;;;;;;4.53;1.77;;;;;;;29.71;35.30;101983.94;6193247;23;20093;-69
2023/07/18 06:45:20;;;;;;;4.00;1.70;;;;;;;29.34;34.39;101983.13;6218004;23;20012;-69
2023/07/18 06:47:46;;;;;;;5.38;1.73;;;;;;;28.71;36.26;101974.16;6192720;23;20008;-69
2023/07/18 06:50:13;;;;;;;4.72;1.50;;;;;;;28.51;36.08;101974.53;6193207;23;20000;-69
2023/07/18 06:52:38;;;;;;;5.05;1.60;;;;;;;27.78;36.40;101969.66;6168660;23;20039;-69
2023/07/18 06:55:06;;;;;;;4.85;1.80;;;;;;;27.09;40.12;101970.50;6215265;23;20430;-69
2023/07/18 06:57:31;;;;;;;4.20;1.63;;;;;;;25.65;39.71;101966.66;6192530;23;20016;-69
2023/07/18 07:08:12;;;;;;;5.88;1.90;;;;;;;23.63;45.68;101951.38;6192963;23;20024;-67
2023/07/18 07:20:55;;;;;;;4.47;1.70;;;;;;;21.90;48.76;101961.81;6218232;22;20457;-67
2023/07/18 08:19:11;;;;;;;5.38;1.10;;;;;;;20.22;51.67;101942.38;6275495;22;20066;-67
2023/07/18 08:21:37;;;;;;;4.50;1.00;;;;;;;20.30;55.20;101945.63;6223650;22;20069;-67
2023/07/18 08:24:02;;;;;;;3.08;0.70;;;;;;;20.46;51.62;101943.28;6223055;22;20046;-66
2023/07/18 08:26:28;;;;;;;3.35;1.10;;;;;;;20.49;49.77;101943.19;6197982;22;20352;-67
2023/07/18 08:28:54;;;;;;;3.95;0.98;;;;;;;20.53;49.98;101943.91;6198016;22;20476;-67
2023/07/18 08:31:20;;;;;;;2.55;0.60;;;;;;;20.51;48.78;101935.13;6197417;22;20013;-67
2023/07/18 08:33:46;;;;;;;2.35;0.65;;;;;;;20.56;51.17;101936.72;6196365;22;20031;-66
2023/07/18 08:36:12;;;;;;;1.58;0.55;;;;;;;20.42;48.16;101931.00;6221826;22;20018;-66
2023/07/18 08:38:38;;;;;;;1.92;0.50;;;;;;;20.62;49.04;101924.09;6247534;22;20094;-66
2023/07/18 08:41:03;;;;;;;2.10;0.60;;;;;;;20.68;50.64;101923.91;6222679;22;20011;-67
2023/07/18 08:43:35;;;;;;;1.17;0.40;;;;;;;20.61;47.26;101931.22;6247710;22;20011;-67
2023/07/18 08:46:01;;;;;;;2.25;0.52;;;;;;;20.65;47.91;101924.84;6247909;22;20007;-67
2023/07/18 08:48:27;;;;;;;0.70;0.47;;;;;;;20.57;47.11;101921.59;6196864;22;20018;-67
2023/07/18 08:50:55;;;;;;;4.15;0.60;;;;;;;20.83;48.17;101915.34;6197196;22;20061;-67
2023/07/18 08:53:21;;;;;;;2.60;0.68;;;;;;;20.77;45.31;101912.88;6222352;22;20015;-67
2023/07/18 08:55:47;;;;;;;1.85;0.60;;;;;;;20.80;45.62;101907.44;6196482;22;20073;-67
2023/07/18 08:58:13;;;;;;;2.53;0.43;;;;;;;21.04;47.66;101912.78;6220275;22;20057;-67
2023/07/18 09:00:38;;;;;;;1.55;0.43;;;;;;;20.98;46.29;101913.03;6247199;22;20008;-67
2023/07/18 09:03:06;;;;;;;1.85;0.60;;;;;;;21.04;47.03;101908.31;6220667;22;20039;-67
2023/07/18 09:05:34;;;;;;;1.27;0.60;;;;;;;20.98;44.85;101905.03;6246150;22;20020;-67
2023/07/18 09:08:01;;;;;;;0.43;0.30;;;;;;;21.19;46.75;101901.53;6222240;22;20015;-67
2023/07/18 09:10:27;;;;;;;2.55;0.60;;;;;;;21.28;46.79;101897.63;6220048;22;20000;-68
2023/07/18 09:12:53;;;;;;;1.90;0.65;;;;;;;21.40;45.47;101893.59;6246852;22;20006;-68
2023/07/18 09:15:22;;;;;;;2.30;0.60;;;;;;;21.35;44.66;101896.44;6222132;22;20093;-68
2023/07/18 09:17:59;;;;;;;4.53;0.60;;;;;;;21.38;44.58;101890.13;6246068;22;20027;-69
2023/07/18 09:20:26;;;;;;;1.27;0.50;;;;;;;21.44;46.12;101890.72;6247351;22;20014;-68
2023/07/18 09:22:59;;;;;;;2.65;0.55;;;;;;;21.68;46.02;101892.47;6247412;22;20451;-68
2023/07/18 09:25:25;;;;;;;2.15;0.40;;;;;;;21.65;44.18;101888.16;6197193;22;20448;-69
2023/07/18 09:27:52;;;;;;;1.25;0.40;;;;;;;21.84;44.08;101890.00;6221602;22;20015;-68
2023/07/18 09:30:22;;;;;;;1.08;0.32;;;;;;;21.88;42.53;101886.28;6246515;22;20004;-68
2023/07/18 09:32:52;;;;;;;0.50;0.22;;;;;;;22.11;44.11;101877.28;6246153;22;20432;-68
2023/07/18 09:35:18;;;;;;;;;;;;;;;22.33;44.79;101877.25;6197657;22;20338;-68
2023/07/18 09:37:47;;;;;;;2.20;0.70;;;;;;;22.20;44.48;101870.69;6247340;22;19904;-68
2023/07/18 09:40:14;;;;;;;2.53;0.40;;;;;;;22.06;44.58;101874.81;6245031;22;20077;-68
2023/07/18 09:42:43;;;;;;;0.95;0.50;;;;;;;22.08;44.48;101878.31;6245758;22;20082;-68
2023/07/18 09:45:10;;;;;;;1.60;0.47;;;;;;;22.13;43.69;101868.28;6246296;22;20000;-68
2023/07/18 09:47:37;;;;;;;1.73;0.60;;;;;;;22.23;41.74;101875.91;6197411;22;20098;-69
2023/07/18 09:50:04;;;;;;;1.27;0.40;;;;;;;22.43;43.15;101872.38;6198510;22;20039;-69
2023/07/18 09:52:34;;;;;;;2.50;0.50;;;;;;;22.48;43.42;101870.34;6198913;22;20003;-68
2023/07/18 09:55:04;;;;;;;0.98;0.50;;;;;;;22.29;42.78;101875.59;6246911;22;20010;-68
2023/07/18 09:57:30;;;;;;;1.58;0.40;;;;;;;22.10;43.40;101876.41;6248486;22;20000;-68
2023/07/18 10:00:01;;;;;;;1.88;0.60;;;;;;;22.06;41.70;101879.31;6248870;22;20012;-68
2023/07/18 10:02:27;;;;;;;1.08;0.43;;;;;;;21.98;42.18;101877.84;6247035;22;20397;-69
2023/07/18 10:04:53;;;;;;;2.40;0.70;;;;;;;21.83;41.63;101877.63;6222649;22;20008;-68
2023/07/18 10:07:19;;;;;;;4.10;0.70;;;;;;;21.91;42.58;101871.03;6197160;22;20003;-68
2023/07/18 10:09:46;;;;;;;2.42;0.68;;;;;;;22.19;44.40;101866.28;6195801;22;20329;-68
2023/07/18 10:12:12;;;;;;;3.97;0.93;;;;;;;22.28;44.79;101860.53;6222475;22;20023;-68
2023/07/18 10:14:49;;;;;;;1.45;0.47;;;;;;;22.40;41.86;101860.00;6246665;22;20372;-68
2023/07/18 10:17:29;;;;;;;4.72;0.80;;;;;;;22.49;43.85;101859.56;6246481;22;20043;-68
2023/07/18 10:19:55;;;;;;;1.90;0.43;;;;;;;22.45;41.37;101852.63;6247152;22;20340;-68
2023/07/18 10:22:31;;;;;;;2.90;0.68;;;;;;;22.47;42.24;101852.59;6197614;22;20035;-68
2023/07/18 10:25:07;;;;;;;1.95;0.50;;;;;;;22.31;43.45;101844.34;6247207;22;20368;-68
2023/07/18 10:27:37;;;;;;;1.20;0.60;;;;;;;22.49;43.29;101848.03;6249140;22;20375;-68
2023/07/18 10:30:11;;;;;;;2.70;0.80;;;;;;;22.55;42.03;101836.22;6223780;22;20395;-68
2023/07/18 10:32:38;;;;;;;2.78;0.68;;;;;;;22.51;42.65;101822.09;6245821;22;20030;-67
2023/07/18 10:35:13;;;;;;;1.70;0.80;;;;;;;22.49;44.34;101824.84;6248001;22;20053;-67
2023/07/18 10:37:43;;;;;;;3.03;0.80;;;;;;;22.41;44.25;101819.03;6248694;22;20375;-67
2023/07/18 10:40:09;;;;;;;2.70;0.80;;;;;;;22.33;43.44;101826.50;6211405;23;20016;-67
2023/07/18 10:42:35;;;;;;;2.28;0.60;;;;;;;22.54;41.37;101819.31;6216514;23;20022;-67
2023/07/18 10:45:07;;;;;;;3.70;0.77;;;;;;;22.69;42.83;101823.06;6186881;23;20024;-67
2023/07/18 10:47:36;;;;;;;1.85;0.60;;;;;;;22.66;41.84;101812.53;6162961;23;20101;-67
2023/07/18 10:50:03;;;;;;;2.40;0.63;;;;;;;22.78;41.96;101817.28;6160446;23;20008;-67
2023/07/18 10:52:41;;;;;;;1.40;0.60;;;;;;;22.79;44.09;101810.13;6186851;23;20015;-67
2023/07/18 10:55:07;;;;;;;2.20;0.65;;;;;;;22.86;42.30;101814.25;6187114;23;20009;-67
2023/07/18 10:57:35;;;;;;;2.83;0.80;;;;;;;22.99;43.21;101809.19;6162367;23;20043;-67
2023/07/18 11:00:05;;;;;;;3.05;0.85;;;;;;;23.03;43.40;101805.41;6188107;23;20011;-68
2023/07/18 11:02:43;;;;;;;3.53;0.75;;;;;;;22.94;41.78;101809.41;6187437;23;20005;-68
2023/07/18 11:05:12;;;;;;;1.30;0.50;;;;;;;22.53;40.96;101806.91;6187825;23;20016;-67
2023/07/18 11:07:46;;;;;;;1.95;0.85;;;;;;;22.64;43.62;101804.59;6187861;23;20088;-67
2023/07/18 11:10:13;;;;;;;1.48;0.60;;;;;;;22.72;43.96;101790.84;6186650;23;20005;-67
2023/07/18 11:12:40;;;;;;;1.02;0.63;;;;;;;22.89;44.21;101794.53;6187218;23;20008;-67
2023/07/18 11:15:07;;;;;;;1.85;0.80;;;;;;;22.82;43.41;101792.13;6212216;23;20013;-67
2023/07/18 11:17:33;;;;;;;1.80;0.40;;;;;;;22.74;40.65;101794.34;6211838;23;20005;-67
2023/07/18 11:19:59;;;;;;;2.15;0.60;;;;;;;22.91;42.95;101789.97;6187399;23;20015;-68
2023/07/18 11:22:25;;;;;;;3.15;0.70;;;;;;;22.63;40.35;101802.84;6187279;23;20016;-68
2023/07/18 11:24:51;;;;;;;1.88;0.77;;;;;;;22.49;41.56;101791.94;6186209;23;20000;-67
2023/07/18 11:27:26;;;;;;;4.57;0.95;;;;;;;22.33;42.56;101789.13;6162448;23;20092;-67
2023/07/18 11:30:08;;;;;;;3.28;0.70;;;;;;;22.24;42.32;101787.72;6187158;23;20107;-67
2023/07/18 11:32:45;;;;;;;2.03;0.75;;;;;;;22.17;43.28;101780.03;6186423;23;20087;-67
2023/07/18 11:35:11;;;;;;;1.92;0.70;;;;;;;22.18;43.37;101777.31;6187377;23;20307;-67
2023/07/18 11:37:41;;;;;;;2.00;0.60;;;;;;;22.14;42.69;101771.25;6185752;23;20430;-67
2023/07/18 11:40:07;;;;;;;2.67;0.90;;;;;;;22.27;43.35;101768.88;6185815;23;20012;-67
2023/07/18 11:42:46;;;;;;;2.03;0.90;;;;;;;22.47;45.61;101773.34;6161513;23;20020;-68
2023/07/18 11:45:12;;;;;;;3.47;1.00;;;;;;;22.59;44.89;101776.38;6186074;23;20095;-67
2023/07/18 11:47:56;;;;;;;2.78;0.82;;;;;;;22.62;44.88;101774.41;6161438;23;20015;-67
2023/07/18 11:50:25;;;;;;;2.10;0.65;;;;;;;22.80;45.80;101763.75;6186482;23;20155;-67
2023/07/18 11:52:51;;;;;;;2.55;0.80;;;;;;;22.67;41.61;101760.84;6187183;23;20040;-67
2023/07/18 11:55:18;;;;;;;2.85;0.75;;;;;;;22.56;42.09;101755.16;6186554;23;20368;-67
2023/07/18 11:57:44;;;;;;;2.65;0.60;;;;;;;22.83;43.25;101760.97;6161967;23;20348;-68
2023/07/18 12:00:14;;;;;;;2.92;0.85;;;;;;;22.64;41.38;101768.97;6211272;23;20012;-67
2023/07/18 12:02:40;;;;;;;2.75;1.00;;;;;;;22.68;41.83;101759.88;6213297;23;20330;-67
2023/07/18 12:05:07;;;;;;;2.25;0.90;;;;;;;22.90;43.50;101758.84;6161808;23;20004;-67
2023/07/18 12:07:33;;;;;;;2.00;0.80;;;;;;;22.69;43.09;101756.28;6160355;23;20012;-67
2023/07/18 12:09:59;;;;;;;1.85;0.80;;;;;;;22.90;44.27;101745.47;6185260;23;20430;-67
2023/07/18 12:12:24;;;;;;;1.63;0.70;;;;;;;22.96;41.96;101746.03;6186192;23;20016;-67
2023/07/18 12:14:51;;;;;;;4.00;0.98;;;;;;;22.83;42.03;101745.78;6187487;23;20494;-67
2023/07/18 12:17:17;;;;;;;3.63;1.10;;;;;;;22.90;41.64;101750.81;6185400;23;20009;-67
2023/07/18 12:19:44;;;;;;;4.30;0.88;;;;;;;22.76;42.71;101739.00;6185896;23;20013;-68
2023/07/18 12:22:33;;;;;;;5.40;1.08;;;;;;;22.85;42.25;101759.06;6185457;23;20012;-67
2023/07/18 12:24:58;;;;;;;2.13;0.73;;;;;;;22.94;41.63;101753.28;6153388;23;20092;-68
2023/07/18 12:27:24;;;;;;;2.50;0.77;;;;;;;23.10;41.06;101748.03;6186893;23;20035;-68
2023/07/18 12:29:49;;;;;;;2.25;0.70;;;;;;;23.34;42.97;101750.41;6185567;23;20000;-67
2023/07/18 12:32:15;;;;;;;1.65;0.70;;;;;;;23.45;40.41;101753.41;6186019;23;20024;-67
2023/07/18 12:34:40;;;;;;;1.98;0.80;;;;;;;23.26;38.70;101747.25;6186869;23;20024;-68
2023/07/18 12:37:07;;;;;;;2.78;0.77;;;;;;;23.41;40.53;101746.50;6187135;23;20054;-67